createdAt,value
2016-11-29T00:00:07.761Z,929.82
2016-11-29T00:00:35.583Z,929.86
2016-11-29T00:01:03.365Z,929.87
2016-11-29T00:01:31.446Z,929.84
2016-11-29T00:01:59.494Z,929.85
2016-11-29T00:02:27.311Z,929.84
2016-11-29T00:02:55.302Z,929.83
2016-11-29T00:03:23.077Z,929.86
2016-11-29T00:03:50.815Z,929.87
2016-11-29T00:04:18.735Z,929.87
2016-11-29T00:04:46.504Z,929.88
2016-11-29T00:05:14.508Z,929.91
2016-11-29T00:05:42.302Z,929.92
2016-11-29T00:06:10.340Z,929.91
2016-11-29T00:06:38.535Z,929.9
2016-11-29T00:07:06.334Z,929.93
2016-11-29T00:07:34.101Z,929.92
2016-11-29T00:08:02.127Z,929.93
2016-11-29T00:08:30.093Z,929.92
2016-11-29T00:08:57.855Z,929.9
2016-11-29T00:09:25.778Z,929.92
2016-11-29T00:09:53.538Z,929.94
2016-11-29T00:10:21.368Z,929.92
2016-11-29T00:10:49.228Z,929.91
2016-11-29T00:11:17.357Z,929.92
2016-11-29T00:11:45.290Z,929.92
2016-11-29T00:12:13.133Z,929.93
2016-11-29T00:12:40.882Z,929.93
2016-11-29T00:13:08.792Z,929.94
2016-11-29T00:13:36.648Z,929.97
2016-11-29T00:14:04.449Z,929.97
2016-11-29T00:14:32.282Z,929.97
2016-11-29T00:15:00.146Z,929.95
2016-11-29T00:15:28.054Z,929.99
2016-11-29T00:15:55.912Z,930
2016-11-29T00:16:23.982Z,930
2016-11-29T00:16:51.798Z,929.95
2016-11-29T00:17:19.830Z,929.98
2016-11-29T00:17:47.730Z,930
2016-11-29T00:18:16.054Z,930
2016-11-29T00:18:44.044Z,930
2016-11-29T00:19:11.883Z,930.01
2016-11-29T00:19:39.811Z,930.04
2016-11-29T00:20:07.667Z,930
2016-11-29T00:20:35.506Z,929.99
2016-11-29T00:21:03.250Z,929.97
2016-11-29T00:21:31.618Z,930.04
2016-11-29T00:21:59.561Z,930.04
2016-11-29T00:22:27.480Z,930.04
2016-11-29T00:22:55.514Z,930.05
2016-11-29T00:23:23.293Z,930.02
2016-11-29T00:23:51.200Z,930.08
2016-11-29T00:24:19.101Z,930.05
2016-11-29T00:24:47.063Z,930.09
2016-11-29T00:25:14.989Z,930.07
2016-11-29T00:25:42.806Z,930.13
2016-11-29T00:26:10.779Z,930.11
2016-11-29T00:26:38.739Z,930.14
2016-11-29T00:27:06.745Z,930.12
2016-11-29T00:27:34.521Z,930.14
2016-11-29T00:28:02.604Z,930.19
2016-11-29T00:28:30.400Z,930.19
2016-11-29T00:28:58.261Z,930.17
2016-11-29T00:29:26.139Z,930.19
2016-11-29T00:29:54.068Z,930.21
2016-11-29T00:30:22.018Z,930.13
2016-11-29T00:30:49.937Z,930.15
2016-11-29T00:31:17.790Z,930.19
2016-11-29T00:31:45.709Z,930.2
2016-11-29T00:32:13.536Z,930.2
2016-11-29T00:32:41.391Z,930.22
2016-11-29T00:33:09.694Z,930.21
2016-11-29T00:33:37.593Z,930.21
2016-11-29T00:34:05.673Z,930.19
2016-11-29T00:34:33.582Z,930.21
2016-11-29T00:35:01.465Z,930.24
2016-11-29T00:35:29.251Z,930.23
2016-11-29T00:35:57.330Z,930.23
2016-11-29T00:36:25.432Z,930.29
2016-11-29T00:36:53.442Z,930.29
2016-11-29T00:37:21.260Z,930.29
2016-11-29T00:37:49.070Z,930.29
2016-11-29T00:38:16.846Z,930.32
2016-11-29T00:38:44.734Z,930.3
2016-11-29T00:39:12.530Z,930.36
2016-11-29T00:39:40.289Z,930.33
2016-11-29T00:40:08.213Z,930.34
2016-11-29T00:40:36.022Z,930.4
2016-11-29T00:41:03.892Z,930.42
2016-11-29T00:41:32.175Z,930.37
2016-11-29T00:41:59.967Z,930.39
2016-11-29T00:42:28.051Z,930.42
2016-11-29T00:42:55.824Z,930.39
2016-11-29T00:43:23.769Z,930.44
2016-11-29T00:43:51.561Z,930.41
2016-11-29T00:44:19.440Z,930.41
2016-11-29T00:44:47.351Z,930.43
2016-11-29T00:45:15.255Z,930.44
2016-11-29T00:45:43.136Z,930.42
2016-11-29T00:46:10.876Z,930.43
2016-11-29T00:46:38.946Z,930.44
2016-11-29T00:47:06.898Z,930.42
2016-11-29T00:47:34.767Z,930.43
2016-11-29T00:48:02.616Z,930.44
2016-11-29T00:48:30.374Z,930.45
2016-11-29T00:48:58.155Z,930.41
2016-11-29T00:49:26.040Z,930.43
2016-11-29T00:49:53.783Z,930.45
2016-11-29T00:50:22.099Z,930.43
2016-11-29T00:50:50.057Z,930.41
2016-11-29T00:51:17.810Z,930.41
2016-11-29T00:51:45.792Z,930.4
2016-11-29T00:52:13.714Z,930.39
2016-11-29T00:52:41.640Z,930.39
2016-11-29T00:53:09.463Z,930.36
2016-11-29T00:53:37.334Z,930.37
2016-11-29T00:54:05.197Z,930.36
2016-11-29T00:54:33.088Z,930.38
2016-11-29T00:55:00.949Z,930.34
2016-11-29T00:55:28.737Z,930.33
2016-11-29T00:55:56.545Z,930.34
2016-11-29T00:56:24.489Z,930.34
2016-11-29T00:56:52.668Z,930.34
2016-11-29T00:57:20.425Z,930.36
2016-11-29T00:57:48.461Z,930.33
2016-11-29T00:58:16.226Z,930.33
2016-11-29T00:58:44.035Z,930.34
2016-11-29T00:59:11.893Z,930.38
2016-11-29T00:59:39.809Z,930.39
2016-11-29T01:00:07.791Z,930.37
2016-11-29T01:00:35.631Z,930.39
2016-11-29T01:01:03.496Z,930.41
2016-11-29T01:01:31.652Z,930.36
2016-11-29T01:01:59.383Z,930.39
2016-11-29T01:02:27.245Z,930.39
2016-11-29T01:02:55.010Z,930.38
2016-11-29T01:03:22.930Z,930.43
2016-11-29T01:03:50.871Z,930.41
2016-11-29T01:04:18.727Z,930.43
2016-11-29T01:04:46.587Z,930.43
2016-11-29T01:05:14.749Z,930.43
2016-11-29T01:05:42.592Z,930.42
2016-11-29T01:06:10.463Z,930.39
2016-11-29T01:06:38.645Z,930.42
2016-11-29T01:07:06.516Z,930.41
2016-11-29T01:07:34.273Z,930.43
2016-11-29T01:08:02.082Z,930.44
2016-11-29T01:08:29.878Z,930.46
2016-11-29T01:08:57.669Z,930.48
2016-11-29T01:09:25.523Z,930.45
2016-11-29T01:09:53.392Z,930.46
2016-11-29T01:10:21.178Z,930.47
2016-11-29T01:10:49.070Z,930.48
2016-11-29T01:11:16.984Z,930.47
2016-11-29T01:11:44.862Z,930.49
2016-11-29T01:12:12.869Z,930.47
2016-11-29T01:12:40.711Z,930.48
2016-11-29T01:13:08.638Z,930.48
2016-11-29T01:13:36.387Z,930.53
2016-11-29T01:14:04.872Z,930.53
2016-11-29T01:14:32.937Z,930.54
2016-11-29T01:15:00.872Z,930.57
2016-11-29T01:15:28.974Z,930.61
2016-11-29T01:15:56.926Z,930.59
2016-11-29T01:16:24.776Z,930.59
2016-11-29T01:16:52.880Z,930.63
2016-11-29T01:17:20.855Z,930.65
2016-11-29T01:17:48.739Z,930.65
2016-11-29T01:18:16.720Z,930.66
2016-11-29T01:18:44.768Z,930.63
2016-11-29T01:19:12.577Z,930.63
2016-11-29T01:19:40.690Z,930.62
2016-11-29T01:20:08.613Z,930.63
2016-11-29T01:20:36.959Z,930.63
2016-11-29T01:21:04.829Z,930.61
2016-11-29T01:21:32.665Z,930.62
2016-11-29T01:22:00.756Z,930.61
2016-11-29T01:22:28.569Z,930.61
2016-11-29T01:22:56.544Z,930.58
2016-11-29T01:23:24.365Z,930.62
2016-11-29T01:23:52.290Z,930.61
2016-11-29T01:24:20.457Z,930.64
2016-11-29T01:24:48.901Z,930.61
2016-11-29T01:25:16.908Z,930.61
2016-11-29T01:25:45.137Z,930.55
2016-11-29T01:26:13.019Z,930.59
2016-11-29T01:26:41.094Z,930.59
2016-11-29T01:27:09.093Z,930.61
2016-11-29T01:27:36.993Z,930.63
2016-11-29T01:28:05.034Z,930.61
2016-11-29T01:28:32.959Z,930.64
2016-11-29T01:29:01.124Z,930.66
2016-11-29T01:29:29.013Z,930.65
2016-11-29T01:29:57.188Z,930.66
2016-11-29T01:30:25.158Z,930.66
2016-11-29T01:30:53.235Z,930.68
2016-11-29T01:31:21.277Z,930.71
2016-11-29T01:31:49.497Z,930.73
2016-11-29T01:32:17.416Z,930.72
2016-11-29T01:32:45.427Z,930.76
2016-11-29T01:33:13.546Z,930.74
2016-11-29T01:33:41.521Z,930.77
2016-11-29T01:34:09.488Z,930.75
2016-11-29T01:34:37.362Z,930.75
2016-11-29T01:35:05.260Z,930.78
2016-11-29T01:35:33.854Z,930.74
2016-11-29T01:36:01.865Z,930.73
2016-11-29T01:36:29.745Z,930.76
2016-11-29T01:36:57.873Z,930.76
2016-11-29T01:37:25.862Z,930.74
2016-11-29T01:37:53.767Z,930.72
2016-11-29T01:38:21.567Z,930.72
2016-11-29T01:38:49.340Z,930.7
2016-11-29T01:39:17.405Z,930.7
2016-11-29T01:39:45.431Z,930.73
2016-11-29T01:40:13.351Z,930.69
2016-11-29T01:40:41.309Z,930.71
2016-11-29T01:41:09.188Z,930.71
2016-11-29T01:41:36.982Z,930.67
2016-11-29T01:42:04.876Z,930.68
2016-11-29T01:42:32.726Z,930.69
2016-11-29T01:43:00.609Z,930.66
2016-11-29T01:43:28.376Z,930.68
2016-11-29T01:43:56.240Z,930.68
2016-11-29T01:44:24.307Z,930.69
2016-11-29T01:44:52.186Z,930.68
2016-11-29T01:45:20.101Z,930.66
2016-11-29T01:45:48.088Z,930.66
2016-11-29T01:46:16.220Z,930.64
2016-11-29T01:46:44.189Z,930.66
2016-11-29T01:47:12.458Z,930.65
2016-11-29T01:47:40.281Z,930.65
2016-11-29T01:48:08.136Z,930.65
2016-11-29T01:48:36.257Z,930.63
2016-11-29T01:49:04.119Z,930.63
2016-11-29T01:49:32.141Z,930.64
2016-11-29T01:49:59.988Z,930.61
2016-11-29T01:50:27.993Z,930.63
2016-11-29T01:50:55.976Z,930.64
2016-11-29T01:51:24.022Z,930.62
2016-11-29T01:51:51.906Z,930.57
2016-11-29T01:52:19.993Z,930.58
2016-11-29T01:52:47.973Z,930.58
2016-11-29T01:53:16.009Z,930.55
2016-11-29T01:53:44.019Z,930.6
2016-11-29T01:54:11.935Z,930.51
2016-11-29T01:54:39.724Z,930.54
2016-11-29T01:55:07.861Z,930.56
2016-11-29T01:55:35.654Z,930.54
2016-11-29T01:56:03.485Z,930.53
2016-11-29T01:56:31.476Z,930.51
2016-11-29T01:56:59.727Z,930.51
2016-11-29T01:57:27.670Z,930.54
2016-11-29T01:57:55.658Z,930.5
2016-11-29T01:58:23.825Z,930.48
2016-11-29T01:58:51.903Z,930.47
2016-11-29T01:59:19.697Z,930.49
2016-11-29T01:59:47.615Z,930.48
2016-11-29T02:00:15.587Z,930.48
2016-11-29T02:00:43.447Z,930.47
2016-11-29T02:01:11.445Z,930.48
2016-11-29T02:01:39.205Z,930.47
2016-11-29T02:02:07.562Z,930.46
2016-11-29T02:02:35.628Z,930.44
2016-11-29T02:03:03.470Z,930.44
2016-11-29T02:03:31.502Z,930.41
2016-11-29T02:03:59.747Z,930.42
2016-11-29T02:04:28.530Z,930.39
2016-11-29T02:04:56.714Z,930.4
2016-11-29T02:05:24.754Z,930.33
2016-11-29T02:05:52.640Z,930.35
2016-11-29T02:06:20.549Z,930.35
2016-11-29T02:06:48.568Z,930.31
2016-11-29T02:07:16.657Z,930.31
2016-11-29T02:07:44.554Z,930.28
2016-11-29T02:08:12.563Z,930.29
2016-11-29T02:08:40.555Z,930.25
2016-11-29T02:09:08.330Z,930.28
2016-11-29T02:09:36.128Z,930.23
2016-11-29T02:10:04.177Z,930.21
2016-11-29T02:10:32.003Z,930.2
2016-11-29T02:10:59.956Z,930.17
2016-11-29T02:11:27.912Z,930.16
2016-11-29T02:11:55.878Z,930.15
2016-11-29T02:12:24.173Z,930.15
2016-11-29T02:12:52.039Z,930.15
2016-11-29T02:13:20.122Z,930.11
2016-11-29T02:13:48.046Z,930.12
2016-11-29T02:14:16.034Z,930.1
2016-11-29T02:14:43.875Z,930.11
2016-11-29T02:15:11.854Z,930.09
2016-11-29T02:15:39.836Z,930.11
2016-11-29T02:16:07.811Z,930.09
2016-11-29T02:16:35.696Z,930.07
2016-11-29T02:17:04.139Z,930.06
2016-11-29T02:17:31.981Z,930.07
2016-11-29T02:17:59.871Z,930.04
2016-11-29T02:18:27.908Z,930.06
2016-11-29T02:18:55.969Z,930.06
2016-11-29T02:19:24.071Z,930.05
2016-11-29T02:19:52.043Z,930.04
2016-11-29T02:20:20.052Z,930.03
2016-11-29T02:20:47.811Z,930.03
2016-11-29T02:21:15.834Z,930.05
2016-11-29T02:21:43.813Z,930.02
2016-11-29T02:22:12.106Z,930.01
2016-11-29T02:22:40.055Z,929.99
2016-11-29T02:23:07.914Z,929.98
2016-11-29T02:23:35.878Z,930.02
2016-11-29T02:24:03.748Z,929.99
2016-11-29T02:24:31.596Z,930
2016-11-29T02:24:59.520Z,930.01
2016-11-29T02:25:27.585Z,929.99
2016-11-29T02:25:55.429Z,930.04
2016-11-29T02:26:23.303Z,929.98
2016-11-29T02:26:51.433Z,930.02
2016-11-29T02:27:19.659Z,929.99
2016-11-29T02:27:47.494Z,929.99
2016-11-29T02:28:15.455Z,930
2016-11-29T02:28:43.260Z,929.96
2016-11-29T02:29:11.164Z,929.97
2016-11-29T02:29:39.207Z,929.95
2016-11-29T02:30:07.162Z,929.99
2016-11-29T02:30:35.282Z,929.96
2016-11-29T02:31:03.414Z,929.94
2016-11-29T02:31:31.374Z,929.9
2016-11-29T02:31:59.222Z,929.93
2016-11-29T02:32:27.367Z,929.92
2016-11-29T02:32:55.340Z,929.89
2016-11-29T02:33:23.854Z,929.92
2016-11-29T02:33:51.805Z,929.9
2016-11-29T02:34:19.813Z,929.89
2016-11-29T02:34:48.304Z,929.9
2016-11-29T02:35:16.080Z,929.88
2016-11-29T02:35:43.952Z,929.9
2016-11-29T02:36:11.901Z,929.9
2016-11-29T02:36:39.905Z,929.9
2016-11-29T02:37:07.845Z,929.91
2016-11-29T02:37:36.199Z,929.92
2016-11-29T02:38:04.059Z,929.91
2016-11-29T02:38:31.997Z,929.9
2016-11-29T02:38:59.912Z,929.91
2016-11-29T02:39:27.835Z,929.89
2016-11-29T02:39:55.646Z,929.9
2016-11-29T02:40:23.647Z,929.88
2016-11-29T02:40:51.740Z,929.85
2016-11-29T02:41:19.969Z,929.86
2016-11-29T02:41:47.956Z,929.87
2016-11-29T02:42:16.317Z,929.86
2016-11-29T02:42:44.379Z,929.84
2016-11-29T02:43:12.394Z,929.82
2016-11-29T02:43:40.404Z,929.86
2016-11-29T02:44:08.320Z,929.84
2016-11-29T02:44:36.192Z,929.83
2016-11-29T02:45:04.252Z,929.81
2016-11-29T02:45:32.277Z,929.79
2016-11-29T02:46:00.469Z,929.79
2016-11-29T02:46:28.527Z,929.8
2016-11-29T02:46:56.465Z,929.77
2016-11-29T02:47:24.780Z,929.79
2016-11-29T02:47:52.785Z,929.79
2016-11-29T02:48:20.703Z,929.78
2016-11-29T02:48:48.799Z,929.76
2016-11-29T02:49:16.728Z,929.77
2016-11-29T02:49:44.695Z,929.8
2016-11-29T02:50:12.577Z,929.79
2016-11-29T02:50:40.676Z,929.75
2016-11-29T02:51:08.921Z,929.78
2016-11-29T02:51:37.027Z,929.78
2016-11-29T02:52:04.984Z,929.8
2016-11-29T02:52:33.259Z,929.76
2016-11-29T02:53:01.272Z,929.79
2016-11-29T02:53:29.452Z,929.79
2016-11-29T02:53:57.981Z,929.78
2016-11-29T02:54:25.872Z,929.8
2016-11-29T02:54:54.536Z,929.78
2016-11-29T02:55:22.717Z,929.81
2016-11-29T02:55:50.474Z,929.77
2016-11-29T02:56:18.656Z,929.78
2016-11-29T02:56:46.642Z,929.77
2016-11-29T02:57:14.609Z,929.76
2016-11-29T02:57:43.048Z,929.77
2016-11-29T02:58:10.880Z,929.77
2016-11-29T02:58:38.854Z,929.73
2016-11-29T02:59:06.735Z,929.74
2016-11-29T02:59:34.830Z,929.75
2016-11-29T03:00:03.110Z,929.74
2016-11-29T03:00:31.183Z,929.73
2016-11-29T03:00:58.942Z,929.71
2016-11-29T03:01:26.988Z,929.69
2016-11-29T03:01:54.765Z,929.72
2016-11-29T03:02:22.685Z,929.72
2016-11-29T03:02:50.955Z,929.71
2016-11-29T03:03:19.057Z,929.71
2016-11-29T03:03:46.912Z,929.73
2016-11-29T03:04:14.915Z,929.71
2016-11-29T03:04:42.964Z,929.67
2016-11-29T03:05:10.750Z,929.67
2016-11-29T03:05:38.911Z,929.65
2016-11-29T03:06:07.043Z,929.68
2016-11-29T03:06:35.152Z,929.67
2016-11-29T03:07:02.908Z,929.62
2016-11-29T03:07:31.265Z,929.64
2016-11-29T03:07:59.148Z,929.62
2016-11-29T03:08:26.951Z,929.61
2016-11-29T03:08:55.115Z,929.6
2016-11-29T03:09:23.110Z,929.6
2016-11-29T03:09:51.258Z,929.56
2016-11-29T03:10:19.236Z,929.59
2016-11-29T03:10:47.174Z,929.59
2016-11-29T03:11:15.036Z,929.54
2016-11-29T03:11:42.976Z,929.54
2016-11-29T03:12:10.819Z,929.55
2016-11-29T03:12:39.092Z,929.54
2016-11-29T03:13:07.203Z,929.53
2016-11-29T03:13:35.163Z,929.49
2016-11-29T03:14:03.102Z,929.51
2016-11-29T03:14:30.952Z,929.47
2016-11-29T03:14:58.796Z,929.48
2016-11-29T03:15:26.617Z,929.46
2016-11-29T03:15:54.471Z,929.42
2016-11-29T03:16:22.217Z,929.45
2016-11-29T03:16:49.975Z,929.43
2016-11-29T03:17:17.866Z,929.43
2016-11-29T03:17:45.958Z,929.42
2016-11-29T03:18:13.818Z,929.37
2016-11-29T03:18:41.678Z,929.41
2016-11-29T03:19:09.525Z,929.39
2016-11-29T03:19:37.323Z,929.4
2016-11-29T03:20:05.062Z,929.36
2016-11-29T03:20:32.915Z,929.36
2016-11-29T03:21:00.699Z,929.36
2016-11-29T03:21:28.559Z,929.41
2016-11-29T03:21:56.365Z,929.39
2016-11-29T03:22:24.144Z,929.37
2016-11-29T03:22:52.237Z,929.35
2016-11-29T03:23:20.002Z,929.37
2016-11-29T03:23:47.787Z,929.33
2016-11-29T03:24:15.676Z,929.35
2016-11-29T03:24:43.533Z,929.33
2016-11-29T03:25:11.303Z,929.32
2016-11-29T03:25:39.149Z,929.34
2016-11-29T03:26:07.031Z,929.31
2016-11-29T03:26:34.911Z,929.31
2016-11-29T03:27:02.677Z,929.33
2016-11-29T03:27:30.700Z,929.31
2016-11-29T03:27:58.794Z,929.28
2016-11-29T03:28:26.555Z,929.31
2016-11-29T03:28:54.401Z,929.28
2016-11-29T03:29:22.159Z,929.26
2016-11-29T03:29:49.983Z,929.29
2016-11-29T03:30:17.737Z,929.25
2016-11-29T03:30:45.580Z,929.25
2016-11-29T03:31:13.359Z,929.24
2016-11-29T03:31:41.148Z,929.28
2016-11-29T03:32:08.976Z,929.26
2016-11-29T03:32:36.805Z,929.24
2016-11-29T03:33:04.870Z,929.24
2016-11-29T03:33:32.645Z,929.23
2016-11-29T03:34:00.518Z,929.21
2016-11-29T03:34:28.284Z,929.23
2016-11-29T03:34:56.057Z,929.26
2016-11-29T03:35:23.835Z,929.23
2016-11-29T03:35:51.615Z,929.21
2016-11-29T03:36:19.374Z,929.22
2016-11-29T03:36:47.236Z,929.17
2016-11-29T03:37:15.015Z,929.16
2016-11-29T03:37:42.801Z,929.19
2016-11-29T03:38:10.928Z,929.18
2016-11-29T03:38:38.772Z,929.2
2016-11-29T03:39:06.538Z,929.15
2016-11-29T03:39:34.379Z,929.19
2016-11-29T03:40:02.237Z,929.13
2016-11-29T03:40:30.021Z,929.13
2016-11-29T03:40:57.800Z,929.14
2016-11-29T03:41:25.780Z,929.16
2016-11-29T03:41:53.555Z,929.15
2016-11-29T03:42:21.421Z,929.1
2016-11-29T03:42:49.230Z,929.11
2016-11-29T03:43:17.287Z,929.15
2016-11-29T03:43:45.088Z,929.15
2016-11-29T03:44:12.933Z,929.17
2016-11-29T03:44:40.708Z,929.17
2016-11-29T03:45:08.582Z,929.17
2016-11-29T03:45:36.351Z,929.21
2016-11-29T03:46:04.139Z,929.18
2016-11-29T03:46:32.026Z,929.19
2016-11-29T03:46:59.780Z,929.18
2016-11-29T03:47:27.656Z,929.2
2016-11-29T03:47:55.839Z,929.19
2016-11-29T03:48:23.814Z,929.15
2016-11-29T03:48:51.648Z,929.19
2016-11-29T03:49:19.496Z,929.17
2016-11-29T03:49:47.252Z,929.18
2016-11-29T03:50:15.115Z,929.17
2016-11-29T03:50:42.902Z,929.16
2016-11-29T03:51:10.687Z,929.19
2016-11-29T03:51:38.535Z,929.21
2016-11-29T03:52:06.360Z,929.23
2016-11-29T03:52:34.114Z,929.23
2016-11-29T03:53:02.325Z,929.19
2016-11-29T03:53:30.190Z,929.24
2016-11-29T03:53:57.951Z,929.26
2016-11-29T03:54:25.742Z,929.19
2016-11-29T03:54:53.475Z,929.25
2016-11-29T03:55:21.235Z,929.28
2016-11-29T03:55:49.147Z,929.2
2016-11-29T03:56:17.048Z,929.22
2016-11-29T03:56:44.832Z,929.29
2016-11-29T03:57:12.615Z,929.27
2016-11-29T03:57:40.451Z,929.22
2016-11-29T03:58:08.511Z,929.26
2016-11-29T03:58:36.484Z,929.28
2016-11-29T03:59:04.388Z,929.26
2016-11-29T03:59:32.220Z,929.32
2016-11-29T04:00:00.075Z,929.3
2016-11-29T04:00:27.844Z,929.34
2016-11-29T04:00:55.682Z,929.31
2016-11-29T04:01:23.436Z,929.34
2016-11-29T04:01:51.213Z,929.29
2016-11-29T04:02:19.008Z,929.3
2016-11-29T04:02:46.842Z,929.33
2016-11-29T04:03:15.022Z,929.27
2016-11-29T04:03:42.881Z,929.29
2016-11-29T04:04:10.650Z,929.25
2016-11-29T04:04:38.498Z,929.27
2016-11-29T04:05:06.335Z,929.32
2016-11-29T04:05:34.137Z,929.3
2016-11-29T04:06:01.916Z,929.26
2016-11-29T04:06:29.676Z,929.23
2016-11-29T04:06:57.502Z,929.22
2016-11-29T04:07:25.268Z,929.26
2016-11-29T04:07:53.163Z,929.26
2016-11-29T04:08:21.272Z,929.27
2016-11-29T04:08:49.033Z,929.23
2016-11-29T04:09:16.825Z,929.24
2016-11-29T04:09:44.600Z,929.25
2016-11-29T04:10:12.364Z,929.27
2016-11-29T04:10:40.127Z,929.21
2016-11-29T04:11:07.920Z,929.29
2016-11-29T04:11:35.772Z,929.2
2016-11-29T04:12:03.576Z,929.19
2016-11-29T04:12:31.454Z,929.21
2016-11-29T04:12:59.247Z,929.19
2016-11-29T04:13:27.421Z,929.08
2016-11-29T04:13:55.270Z,929.17
2016-11-29T04:14:23.164Z,929.16
2016-11-29T04:14:50.902Z,929.15
2016-11-29T04:15:18.749Z,929.12
2016-11-29T04:15:46.604Z,929.13
2016-11-29T04:16:14.400Z,929.13
2016-11-29T04:16:42.156Z,929.12
2016-11-29T04:17:09.939Z,929.09
2016-11-29T04:17:37.863Z,929.1
2016-11-29T04:18:05.770Z,929.12
2016-11-29T04:18:33.839Z,929.13
2016-11-29T04:19:01.615Z,929.12
2016-11-29T04:19:29.412Z,929.16
2016-11-29T04:19:57.261Z,929.16
2016-11-29T04:20:25.122Z,929.1
2016-11-29T04:20:52.876Z,929.11
2016-11-29T04:21:20.716Z,929.09
2016-11-29T04:21:48.555Z,929.08
2016-11-29T04:22:16.330Z,929.1
2016-11-29T04:22:44.150Z,929.08
2016-11-29T04:23:12.219Z,929.04
2016-11-29T04:23:39.983Z,929.14
2016-11-29T04:24:07.747Z,929.09
2016-11-29T04:24:35.589Z,929.08
2016-11-29T04:25:03.376Z,929.12
2016-11-29T04:25:31.157Z,929.14
2016-11-29T04:25:59.000Z,929.08
2016-11-29T04:26:26.758Z,929.1
2016-11-29T04:26:54.699Z,929.11
2016-11-29T04:27:22.452Z,929.1
2016-11-29T04:27:50.298Z,929.12
2016-11-29T04:28:18.384Z,929.06
2016-11-29T04:28:46.114Z,929.06
2016-11-29T04:29:13.894Z,929.05
2016-11-29T04:29:41.832Z,928.97
2016-11-29T04:30:09.623Z,929.03
2016-11-29T04:30:37.417Z,928.97
2016-11-29T04:31:05.229Z,929
2016-11-29T04:31:32.990Z,928.97
2016-11-29T04:32:00.794Z,928.97
2016-11-29T04:32:28.615Z,929.02
2016-11-29T04:32:56.478Z,929.01
2016-11-29T04:33:24.546Z,928.94
2016-11-29T04:33:52.460Z,929.03
2016-11-29T04:34:20.284Z,929.09
2016-11-29T04:34:48.074Z,929.07
2016-11-29T04:35:15.944Z,929.01
2016-11-29T04:35:43.735Z,929.02
2016-11-29T04:36:11.575Z,929.08
2016-11-29T04:36:39.343Z,929.13
2016-11-29T04:37:07.179Z,929.08
2016-11-29T04:37:34.991Z,929.06
2016-11-29T04:38:02.852Z,929.09
2016-11-29T04:38:30.997Z,929.07
2016-11-29T04:38:58.826Z,929.07
2016-11-29T04:39:26.683Z,929.07
2016-11-29T04:39:54.490Z,929.09
2016-11-29T04:40:22.256Z,929.12
2016-11-29T04:40:50.135Z,929.14
2016-11-29T04:41:17.912Z,929.1
2016-11-29T04:41:45.694Z,929.11
2016-11-29T04:42:13.512Z,929.15
2016-11-29T04:42:41.274Z,929.08
2016-11-29T04:43:09.014Z,929.06
2016-11-29T04:43:37.129Z,929.1
2016-11-29T04:44:05.026Z,929.11
2016-11-29T04:44:33.022Z,929.15
2016-11-29T04:45:00.826Z,929.17
2016-11-29T04:45:28.682Z,929.16
2016-11-29T04:45:56.454Z,929.18
2016-11-29T04:46:24.252Z,929.13
2016-11-29T04:46:52.049Z,929.22
2016-11-29T04:47:19.828Z,929.17
2016-11-29T04:47:47.628Z,929.24
2016-11-29T04:48:15.476Z,929.21
2016-11-29T04:48:43.541Z,929.17
2016-11-29T04:49:11.404Z,929.2
2016-11-29T04:49:39.233Z,929.18
2016-11-29T04:50:07.190Z,929.22
2016-11-29T04:50:34.944Z,929.21
2016-11-29T04:51:02.811Z,929.23
2016-11-29T04:51:30.613Z,929.2
2016-11-29T04:51:58.448Z,929.17
2016-11-29T04:52:26.223Z,929.17
2016-11-29T04:52:53.971Z,929.21
2016-11-29T04:53:21.814Z,929.15
2016-11-29T04:53:49.935Z,929.21
2016-11-29T04:54:17.869Z,929.14
2016-11-29T04:54:45.615Z,929.16
2016-11-29T04:55:13.602Z,929.18
2016-11-29T04:55:41.399Z,929.13
2016-11-29T04:56:09.327Z,929.16
2016-11-29T04:56:37.126Z,929.17
2016-11-29T04:57:04.911Z,929.16
2016-11-29T04:57:32.662Z,929.17
2016-11-29T04:58:00.413Z,929.14
2016-11-29T04:58:28.190Z,929.16
2016-11-29T04:58:56.264Z,929.18
2016-11-29T04:59:24.067Z,929.14
2016-11-29T04:59:51.901Z,929.15
2016-11-29T05:00:19.671Z,929.19
2016-11-29T05:00:47.427Z,929.15
2016-11-29T05:01:15.180Z,929.2
2016-11-29T05:01:42.993Z,929.18
2016-11-29T05:02:10.841Z,929.18
2016-11-29T05:02:38.764Z,929.18
2016-11-29T05:03:06.608Z,929.17
2016-11-29T05:03:34.409Z,929.15
2016-11-29T05:04:02.678Z,929.23
2016-11-29T05:04:30.537Z,929.18
2016-11-29T05:04:58.407Z,929.17
2016-11-29T05:05:26.225Z,929.16
2016-11-29T05:05:53.988Z,929.18
2016-11-29T05:06:21.900Z,929.18
2016-11-29T05:06:49.684Z,929.18
2016-11-29T05:07:17.629Z,929.18
2016-11-29T05:07:45.534Z,929.17
2016-11-29T05:08:13.348Z,929.19
2016-11-29T05:08:41.553Z,929.18
2016-11-29T05:09:09.297Z,929.17
2016-11-29T05:09:37.194Z,929.24
2016-11-29T05:10:05.010Z,929.19
2016-11-29T05:10:32.886Z,929.19
2016-11-29T05:11:00.614Z,929.14
2016-11-29T05:11:28.406Z,929.15
2016-11-29T05:11:56.199Z,929.19
2016-11-29T05:12:23.991Z,929.15
2016-11-29T05:12:51.777Z,929.18
2016-11-29T05:13:19.607Z,929.14
2016-11-29T05:13:47.872Z,929.18
2016-11-29T05:14:15.655Z,929.15
2016-11-29T05:14:43.452Z,929.12
2016-11-29T05:15:11.244Z,929.19
2016-11-29T05:15:39.127Z,929.16
2016-11-29T05:16:06.947Z,929.13
2016-11-29T05:16:34.671Z,929.12
2016-11-29T05:17:02.484Z,929.09
2016-11-29T05:17:30.377Z,929.14
2016-11-29T05:17:58.259Z,929.17
2016-11-29T05:18:26.074Z,929.12
2016-11-29T05:18:54.224Z,929.14
2016-11-29T05:19:22.029Z,929.11
2016-11-29T05:19:49.820Z,929.1
2016-11-29T05:20:17.592Z,929.12
2016-11-29T05:20:45.435Z,929.11
2016-11-29T05:21:13.170Z,929.09
2016-11-29T05:21:41.080Z,929.08
2016-11-29T05:22:08.985Z,929.12
2016-11-29T05:22:36.846Z,929.11
2016-11-29T05:23:04.686Z,929.1
2016-11-29T05:23:32.534Z,929.09
2016-11-29T05:24:00.680Z,929.05
2016-11-29T05:24:28.419Z,929.07
2016-11-29T05:24:56.190Z,929.08
2016-11-29T05:25:24.026Z,929.1
2016-11-29T05:25:51.862Z,929.09
2016-11-29T05:26:19.666Z,929.04
2016-11-29T05:26:47.532Z,929.09
2016-11-29T05:27:15.323Z,929.12
2016-11-29T05:27:43.113Z,929.12
2016-11-29T05:28:10.889Z,929.13
2016-11-29T05:28:38.660Z,929.12
2016-11-29T05:29:06.728Z,929.12
2016-11-29T05:29:34.510Z,929.13
2016-11-29T05:30:02.313Z,929.18
2016-11-29T05:30:30.193Z,929.18
2016-11-29T05:30:57.970Z,929.16
2016-11-29T05:31:25.789Z,929.19
2016-11-29T05:31:53.564Z,929.21
2016-11-29T05:32:21.510Z,929.17
2016-11-29T05:32:49.291Z,929.18
2016-11-29T05:33:17.103Z,929.21
2016-11-29T05:33:44.921Z,929.2
2016-11-29T05:34:12.943Z,929.19
2016-11-29T05:34:40.737Z,929.18
2016-11-29T05:35:08.575Z,929.21
2016-11-29T05:35:36.366Z,929.19
2016-11-29T05:36:04.158Z,929.22
2016-11-29T05:36:31.938Z,929.22
2016-11-29T05:36:59.771Z,929.22
2016-11-29T05:37:27.633Z,929.23
2016-11-29T05:37:55.433Z,929.19
2016-11-29T05:38:23.248Z,929.19
2016-11-29T05:38:51.012Z,929.22
2016-11-29T05:39:19.137Z,929.19
2016-11-29T05:39:46.983Z,929.2
2016-11-29T05:40:14.722Z,929.2
2016-11-29T05:40:42.511Z,929.21
2016-11-29T05:41:10.343Z,929.17
2016-11-29T05:41:38.186Z,929.2
2016-11-29T05:42:05.924Z,929.21
2016-11-29T05:42:33.693Z,929.18
2016-11-29T05:43:01.592Z,929.18
2016-11-29T05:43:29.397Z,929.17
2016-11-29T05:43:57.327Z,929.21
2016-11-29T05:44:25.508Z,929.14
2016-11-29T05:44:53.348Z,929.13
2016-11-29T05:45:21.291Z,929.13
2016-11-29T05:45:49.084Z,929.13
2016-11-29T05:46:16.923Z,929.12
2016-11-29T05:46:44.721Z,929.11
2016-11-29T05:47:12.540Z,929.13
2016-11-29T05:47:40.885Z,929.1
2016-11-29T05:48:08.774Z,929.1
2016-11-29T05:48:36.576Z,929.1
2016-11-29T05:49:04.707Z,929.09
2016-11-29T05:49:32.483Z,929.08